sensor_id;sensor_type;location;lat;lon;timestamp;temperature;humidity
8872;DHT22;4472;52.092;9.820;2024-01-10T00:02:17;-6.00;99.90
8872;DHT22;4472;52.092;9.820;2024-01-10T00:05:05;-6.00;99.90
8872;DHT22;4472;52.092;9.820;2024-01-10T00:07:54;-6.00;99.90
8872;DHT22;4472;52.092;9.820;2024-01-10T00:10:42;-6.00;99.90
8872;DHT22;4472;52.092;9.820;2024-01-10T00:13:31;-6.00;99.90
8872;DHT22;4472;52.092;9.820;2024-01-10T00:16:18;-6.00;99.90
8872;DHT22;4472;52.092;9.820;2024-01-10T00:19:06;-6.00;99.90
8872;DHT22;4472;52.092;9.820;2024-01-10T00:21:53;-6.00;99.90
8872;DHT22;4472;52.092;9.820;2024-01-10T00:24:42;-6.00;99.90
8872;DHT22;4472;52.092;9.820;2024-01-10T00:27:29;-6.00;99.90
8872;DHT22;4472;52.092;9.820;2024-01-10T00:30:16;-6.00;99.90
8872;DHT22;4472;52.092;9.820;2024-01-10T00:33:04;-6.00;99.90
8872;DHT22;4472;52.092;9.820;2024-01-10T00:35:51;-6.00;99.90
8872;DHT22;4472;52.092;9.820;2024-01-10T00:38:39;-5.90;99.90
8872;DHT22;4472;52.092;9.820;2024-01-10T00:41:28;-5.90;99.90
8872;DHT22;4472;52.092;9.820;2024-01-10T00:44:15;-6.00;99.90
8872;DHT22;4472;52.092;9.820;2024-01-10T00:47:02;-6.00;99.90
8872;DHT22;4472;52.092;9.820;2024-01-10T00:49:50;-6.00;99.90
8872;DHT22;4472;52.092;9.820;2024-01-10T00:52:37;-6.10;99.90
8872;DHT22;4472;52.092;9.820;2024-01-10T00:55:24;-6.10;99.90
8872;DHT22;4472;52.092;9.820;2024-01-10T00:58:13;-6.20;99.90
8872;DHT22;4472;52.092;9.820;2024-01-10T01:01:00;-6.20;99.90
8872;DHT22;4472;52.092;9.820;2024-01-10T01:03:48;-6.30;99.90
8872;DHT22;4472;52.092;9.820;2024-01-10T01:06:35;-6.30;99.90
8872;DHT22;4472;52.092;9.820;2024-01-10T01:09:23;-6.30;99.90
8872;DHT22;4472;52.092;9.820;2024-01-10T01:12:10;-6.30;99.90
8872;DHT22;4472;52.092;9.820;2024-01-10T01:14:59;-6.30;99.90
8872;DHT22;4472;52.092;9.820;2024-01-10T01:17:46;-6.30;99.90
8872;DHT22;4472;52.092;9.820;2024-01-10T01:20:34;-6.30;99.90
8872;DHT22;4472;52.092;9.820;2024-01-10T01:23:21;-6.30;99.90
8872;DHT22;4472;52.092;9.820;2024-01-10T01:26:08;-6.20;99.90
8872;DHT22;4472;52.092;9.820;2024-01-10T01:28:55;-6.20;99.90
8872;DHT22;4472;52.092;9.820;2024-01-10T01:31:44;-6.30;99.90
8872;DHT22;4472;52.092;9.820;2024-01-10T01:34:31;-6.30;99.90
8872;DHT22;4472;52.092;9.820;2024-01-10T01:37:18;-6.30;99.90
8872;DHT22;4472;52.092;9.820;2024-01-10T01:40:07;-6.30;99.90
8872;DHT22;4472;52.092;9.820;2024-01-10T01:42:54;-6.30;99.90
8872;DHT22;4472;52.092;9.820;2024-01-10T01:45:42;-6.40;99.90
8872;DHT22;4472;52.092;9.820;2024-01-10T01:48:30;-6.40;99.90
8872;DHT22;4472;52.092;9.820;2024-01-10T01:51:20;-6.40;99.90
8872;DHT22;4472;52.092;9.820;2024-01-10T01:54:09;-6.60;99.90
8872;DHT22;4472;52.092;9.820;2024-01-10T01:56:57;-6.60;99.90
8872;DHT22;4472;52.092;9.820;2024-01-10T01:59:44;-6.70;99.90
8872;DHT22;4472;52.092;9.820;2024-01-10T02:02:32;-6.80;99.90
8872;DHT22;4472;52.092;9.820;2024-01-10T02:05:22;-6.80;99.90
8872;DHT22;4472;52.092;9.820;2024-01-10T02:08:10;-6.90;99.90
8872;DHT22;4472;52.092;9.820;2024-01-10T02:10:57;-6.90;99.90
8872;DHT22;4472;52.092;9.820;2024-01-10T02:13:45;-7.00;99.90
8872;DHT22;4472;52.092;9.820;2024-01-10T02:16:32;-7.00;99.90
8872;DHT22;4472;52.092;9.820;2024-01-10T02:19:20;-7.00;99.90
8872;DHT22;4472;52.092;9.820;2024-01-10T02:22:10;-7.00;99.90
8872;DHT22;4472;52.092;9.820;2024-01-10T02:24:59;-7.10;99.90
8872;DHT22;4472;52.092;9.820;2024-01-10T02:27:46;-7.10;99.90
8872;DHT22;4472;52.092;9.820;2024-01-10T02:30:34;-7.20;99.90
8872;DHT22;4472;52.092;9.820;2024-01-10T02:33:21;-7.20;99.90
8872;DHT22;4472;52.092;9.820;2024-01-10T02:36:09;-7.20;99.90
8872;DHT22;4472;52.092;9.820;2024-01-10T02:38:56;-7.20;99.90
8872;DHT22;4472;52.092;9.820;2024-01-10T02:41:44;-7.30;99.90
8872;DHT22;4472;52.092;9.820;2024-01-10T02:44:32;-7.30;99.90
8872;DHT22;4472;52.092;9.820;2024-01-10T02:47:19;-7.30;99.90
8872;DHT22;4472;52.092;9.820;2024-01-10T02:50:07;-7.40;99.90
8872;DHT22;4472;52.092;9.820;2024-01-10T02:52:54;-7.40;99.90
8872;DHT22;4472;52.092;9.820;2024-01-10T02:55:42;-7.50;99.90
8872;DHT22;4472;52.092;9.820;2024-01-10T02:58:33;-7.50;99.90
8872;DHT22;4472;52.092;9.820;2024-01-10T03:01:20;-7.50;99.90
8872;DHT22;4472;52.092;9.820;2024-01-10T03:04:08;-7.50;99.90
8872;DHT22;4472;52.092;9.820;2024-01-10T03:06:55;-7.40;99.90
8872;DHT22;4472;52.092;9.820;2024-01-10T03:09:42;-6.00;99.90
8872;DHT22;4472;52.092;9.820;2024-01-10T03:12:30;-7.30;99.90
8872;DHT22;4472;52.092;9.820;2024-01-10T03:15:18;-7.10;99.90
8872;DHT22;4472;52.092;9.820;2024-01-10T03:18:06;-7.00;99.90
8872;DHT22;4472;52.092;9.820;2024-01-10T03:20:53;-6.90;99.90
8872;DHT22;4472;52.092;9.820;2024-01-10T03:23:42;-6.90;99.90
8872;DHT22;4472;52.092;9.820;2024-01-10T03:26:29;-6.80;99.90
8872;DHT22;4472;52.092;9.820;2024-01-10T03:29:16;-6.80;99.90
8872;DHT22;4472;52.092;9.820;2024-01-10T03:32:05;-6.70;99.90
8872;DHT22;4472;52.092;9.820;2024-01-10T03:34:53;-6.60;99.90
8872;DHT22;4472;52.092;9.820;2024-01-10T03:37:40;-6.60;99.90
8872;DHT22;4472;52.092;9.820;2024-01-10T03:40:27;-6.70;99.90
8872;DHT22;4472;52.092;9.820;2024-01-10T03:43:15;-6.70;99.90
8872;DHT22;4472;52.092;9.820;2024-01-10T03:46:02;-6.70;99.90
8872;DHT22;4472;52.092;9.820;2024-01-10T03:48:52;-6.70;99.90
8872;DHT22;4472;52.092;9.820;2024-01-10T03:51:40;-6.80;99.90
8872;DHT22;4472;52.092;9.820;2024-01-10T03:54:27;-6.80;99.90
8872;DHT22;4472;52.092;9.820;2024-01-10T03:57:15;-6.90;99.90
8872;DHT22;4472;52.092;9.820;2024-01-10T04:00:03;-6.90;99.90
8872;DHT22;4472;52.092;9.820;2024-01-10T04:02:52;-6.90;99.90
8872;DHT22;4472;52.092;9.820;2024-01-10T04:05:42;-7.00;99.90
8872;DHT22;4472;52.092;9.820;2024-01-10T04:08:29;-6.90;99.90
8872;DHT22;4472;52.092;9.820;2024-01-10T04:14:59;-6.90;99.90
8872;DHT22;4472;52.092;9.820;2024-01-10T04:17:47;-6.90;99.90
8872;DHT22;4472;52.092;9.820;2024-01-10T04:20:34;-6.90;99.90
8872;DHT22;4472;52.092;9.820;2024-01-10T04:23:23;-7.00;99.90
8872;DHT22;4472;52.092;9.820;2024-01-10T04:26:10;-6.90;99.90
8872;DHT22;4472;52.092;9.820;2024-01-10T04:28:57;-6.90;99.90
8872;DHT22;4472;52.092;9.820;2024-01-10T04:31:45;-6.90;99.90
8872;DHT22;4472;52.092;9.820;2024-01-10T04:34:32;-7.00;99.90
8872;DHT22;4472;52.092;9.820;2024-01-10T04:37:19;-7.00;99.90
8872;DHT22;4472;52.092;9.820;2024-01-10T04:40:09;-7.00;99.90
8872;DHT22;4472;52.092;9.820;2024-01-10T04:42:56;-7.00;99.90
8872;DHT22;4472;52.092;9.820;2024-01-10T04:45:44;-7.00;99.90
8872;DHT22;4472;52.092;9.820;2024-01-10T04:48:31;-7.10;99.90
8872;DHT22;4472;52.092;9.820;2024-01-10T04:51:18;-7.00;99.90
8872;DHT22;4472;52.092;9.820;2024-01-10T04:54:06;-6.70;99.90
8872;DHT22;4472;52.092;9.820;2024-01-10T04:56:54;-7.10;99.90
8872;DHT22;4472;52.092;9.820;2024-01-10T04:59:42;-7.10;99.90
8872;DHT22;4472;52.092;9.820;2024-01-10T05:02:29;-7.10;99.90
8872;DHT22;4472;52.092;9.820;2024-01-10T05:05:17;-7.10;99.90
8872;DHT22;4472;52.092;9.820;2024-01-10T05:08:09;-7.10;99.90
8872;DHT22;4472;52.092;9.820;2024-01-10T05:10:56;-7.10;99.90
8872;DHT22;4472;52.092;9.820;2024-01-10T05:13:47;-7.10;99.90
8872;DHT22;4472;52.092;9.820;2024-01-10T05:16:34;-7.10;99.90
8872;DHT22;4472;52.092;9.820;2024-01-10T05:19:21;-7.10;99.90
8872;DHT22;4472;52.092;9.820;2024-01-10T05:22:09;-7.00;99.90
8872;DHT22;4472;52.092;9.820;2024-01-10T05:24:56;-7.00;99.90
8872;DHT22;4472;52.092;9.820;2024-01-10T05:27:44;-7.10;99.90
8872;DHT22;4472;52.092;9.820;2024-01-10T05:30:32;-7.00;99.90
8872;DHT22;4472;52.092;9.820;2024-01-10T05:33:20;-7.00;99.90
8872;DHT22;4472;52.092;9.820;2024-01-10T05:36:08;-7.00;99.90
8872;DHT22;4472;52.092;9.820;2024-01-10T05:38:57;-7.00;99.90
8872;DHT22;4472;52.092;9.820;2024-01-10T05:41:44;-7.00;99.90
8872;DHT22;4472;52.092;9.820;2024-01-10T05:44:32;-7.00;99.90
8872;DHT22;4472;52.092;9.820;2024-01-10T05:47:20;-7.00;99.90
8872;DHT22;4472;52.092;9.820;2024-01-10T05:50:08;-7.00;99.90
8872;DHT22;4472;52.092;9.820;2024-01-10T05:52:56;-6.90;99.90
8872;DHT22;4472;52.092;9.820;2024-01-10T05:55:43;-6.90;99.90
8872;DHT22;4472;52.092;9.820;2024-01-10T05:58:30;-6.90;99.90
8872;DHT22;4472;52.092;9.820;2024-01-10T06:01:18;-6.90;99.90
8872;DHT22;4472;52.092;9.820;2024-01-10T06:04:07;-6.90;99.90
8872;DHT22;4472;52.092;9.820;2024-01-10T06:06:54;-6.90;99.90
8872;DHT22;4472;52.092;9.820;2024-01-10T06:09:42;-6.80;99.90
8872;DHT22;4472;52.092;9.820;2024-01-10T06:12:29;-6.90;99.90
8872;DHT22;4472;52.092;9.820;2024-01-10T06:15:17;-6.80;99.90
8872;DHT22;4472;52.092;9.820;2024-01-10T06:18:04;-6.90;99.90
8872;DHT22;4472;52.092;9.820;2024-01-10T06:20:53;-7.00;99.90
8872;DHT22;4472;52.092;9.820;2024-01-10T06:23:40;-7.00;99.90
8872;DHT22;4472;52.092;9.820;2024-01-10T06:26:28;-6.90;99.90
8872;DHT22;4472;52.092;9.820;2024-01-10T06:29:15;-6.90;99.90
8872;DHT22;4472;52.092;9.820;2024-01-10T06:32:03;-6.80;99.90
8872;DHT22;4472;52.092;9.820;2024-01-10T06:34:52;-6.80;99.90
8872;DHT22;4472;52.092;9.820;2024-01-10T06:37:41;-6.80;99.90
8872;DHT22;4472;52.092;9.820;2024-01-10T06:40:30;-6.80;99.90
8872;DHT22;4472;52.092;9.820;2024-01-10T06:43:17;-6.80;99.90
8872;DHT22;4472;52.092;9.820;2024-01-10T06:46:05;-6.80;99.90
8872;DHT22;4472;52.092;9.820;2024-01-10T06:48:52;-6.80;99.90
8872;DHT22;4472;52.092;9.820;2024-01-10T06:51:39;-6.80;99.90
8872;DHT22;4472;52.092;9.820;2024-01-10T06:54:28;-6.70;99.90
8872;DHT22;4472;52.092;9.820;2024-01-10T06:57:16;-6.70;99.90
8872;DHT22;4472;52.092;9.820;2024-01-10T07:00:04;-6.70;99.90
8872;DHT22;4472;52.092;9.820;2024-01-10T07:02:56;-6.70;99.90
8872;DHT22;4472;52.092;9.820;2024-01-10T07:05:44;-6.70;99.90
8872;DHT22;4472;52.092;9.820;2024-01-10T07:08:31;-6.70;99.90
8872;DHT22;4472;52.092;9.820;2024-01-10T07:11:20;-6.70;99.90
8872;DHT22;4472;52.092;9.820;2024-01-10T07:14:07;-6.80;99.90
8872;DHT22;4472;52.092;9.820;2024-01-10T07:16:55;-6.80;99.90
8872;DHT22;4472;52.092;9.820;2024-01-10T07:19:42;-6.80;99.90
8872;DHT22;4472;52.092;9.820;2024-01-10T07:22:33;-6.90;99.90
8872;DHT22;4472;52.092;9.820;2024-01-10T07:25:20;-6.90;99.90
8872;DHT22;4472;52.092;9.820;2024-01-10T07:28:12;-7.00;99.90
8872;DHT22;4472;52.092;9.820;2024-01-10T07:31:00;-7.00;99.90
8872;DHT22;4472;52.092;9.820;2024-01-10T07:33:48;-7.10;99.90
8872;DHT22;4472;52.092;9.820;2024-01-10T07:36:41;-7.10;99.90
8872;DHT22;4472;52.092;9.820;2024-01-10T07:39:29;-7.20;99.90
8872;DHT22;4472;52.092;9.820;2024-01-10T07:42:17;-7.10;99.90
8872;DHT22;4472;52.092;9.820;2024-01-10T07:45:06;-7.10;99.90
8872;DHT22;4472;52.092;9.820;2024-01-10T07:47:54;-7.10;99.90
8872;DHT22;4472;52.092;9.820;2024-01-10T07:50:42;-7.10;99.90
8872;DHT22;4472;52.092;9.820;2024-01-10T07:53:29;-7.00;99.90
8872;DHT22;4472;52.092;9.820;2024-01-10T07:56:17;-7.00;99.90
8872;DHT22;4472;52.092;9.820;2024-01-10T07:59:05;-7.00;99.90
8872;DHT22;4472;52.092;9.820;2024-01-10T08:01:57;-7.10;99.90
8872;DHT22;4472;52.092;9.820;2024-01-10T08:04:45;-7.10;99.90
